Amity, North Carolina
Current Conditions -  °F | °C
As of 2:35 AM on Sunday 26 Oct 2014 (Local Time) from KRUQ Reporting Station
Clear Clear  
Wind Chill: 56°   Ceiling: Unl
Heat Index: 56°   Visibility: 10mi
Dew Point: 48°   Wind: 3mph
Humidity: 76%   Direction: 260°W
Pressure: 29.89"   Gusts: NA
Location:  35.7427°N, 80.712°W
Report Text: KRUQ 260635Z AUTO 26003KT 10SM CLR 13/09 A2989 RMK AO2 T01320090
Loading
Personal Weather Stations






























Interactive Weather Map
Tropical Storm Tracking
New forecast layout! Learn more

10-Day Weather Forecast

Advertisements
Track Severe Weather on mobile